Time;durP1;ratioP1;P1;durP2;ratioP2;P2;SDS_P1;SDS_P2;PMS_P1;PMS_P2;Temp;Humidity;BMP_temperature;BMP_pressure;BME280_temperature;BME280_humidity;BME280_pressure;Samples;Min_cycle;Max_cycle;Signal;HPM_P1;HPM_P2
2022/01/06 00:01:01;;;;;;;;;;;7.60;94.50;;;;;;4971383;28;20277;-87
2022/01/06 00:03:28;;;;;;;;;;;7.60;94.50;;;;;;5016503;28;19913;-87
2022/01/06 00:05:56;;;;;;;;;;;7.60;94.40;;;;;;4990685;28;20302;-87
2022/01/06 00:08:23;;;;;;;;;;;7.60;94.40;;;;;;5000213;28;19920;-87
2022/01/06 00:10:51;;;;;;;;;;;7.60;94.30;;;;;;4992855;28;19927;-87
2022/01/06 00:13:25;;;;;;;;;;;7.50;94.30;;;;;;4995606;28;20441;-86
2022/01/06 00:18:34;;;;;;;;;;;7.60;94.40;;;;;;4999053;28;19918;-87
2022/01/06 00:23:47;;;;;;;;;;;7.50;94.40;;;;;;5004222;28;19923;-87
2022/01/06 00:26:13;;;;;;;;;;;7.50;94.70;;;;;;4992590;28;19924;-87
2022/01/06 00:28:40;;;;;;;;;;;7.50;94.40;;;;;;4989222;28;20106;-87
2022/01/06 00:31:07;;;;;;;;;;;7.50;94.40;;;;;;4979182;28;19938;-86
2022/01/06 00:33:34;;;;;;;;;;;7.50;94.40;;;;;;4993235;28;20125;-87
2022/01/06 00:36:01;;;;;;;;;;;7.50;94.30;;;;;;4983848;28;20319;-87
2022/01/06 00:38:28;;;;;;;;;;;7.50;94.30;;;;;;4986698;28;20316;-87
2022/01/06 00:40:56;;;;;;;;;;;7.40;94.20;;;;;;4991366;28;19914;-87
2022/01/06 00:43:22;;;;;;;;;;;7.40;94.20;;;;;;4982184;28;19922;-87
2022/01/06 00:45:49;;;;;;;;;;;7.40;94.10;;;;;;4982841;28;19910;-87
2022/01/06 00:48:16;;;;;;;;;;;7.30;94.10;;;;;;4986584;28;20392;-87
2022/01/06 00:50:43;;;;;;;;;;;7.20;94.00;;;;;;4989478;28;19913;-87
2022/01/06 00:53:10;;;;;;;;;;;7.20;93.90;;;;;;4983196;28;19921;-87
2022/01/06 00:55:38;;;;;;;;;;;7.10;93.90;;;;;;4991991;28;20282;-87
2022/01/06 00:58:05;;;;;;;;;;;7.00;93.80;;;;;;4988056;28;19924;-87
2022/01/06 01:00:39;;;;;;;;;;;7.00;93.80;;;;;;4975589;28;20104;-87
2022/01/06 01:03:08;;;;;;;;;;;6.90;93.70;;;;;;4987494;28;19924;-87
2022/01/06 01:05:35;;;;;;;;;;;6.90;93.70;;;;;;4979160;28;19927;-87
2022/01/06 01:08:02;;;;;;;;;;;6.80;93.70;;;;;;4975176;28;20313;-87
2022/01/06 01:10:29;;;;;;;;;;;6.80;93.70;;;;;;4979324;28;21034;-87
2022/01/06 01:12:56;;;;;;;;;;;6.70;93.70;;;;;;4999471;28;19936;-87
2022/01/06 01:15:23;;;;;;;;;;;6.70;93.70;;;;;;4977322;28;20379;-86
2022/01/06 01:17:51;;;;;;;;;;;6.60;93.80;;;;;;4989287;28;20324;-87
2022/01/06 01:20:18;;;;;;;;;;;6.60;93.90;;;;;;4991262;28;19918;-87
2022/01/06 01:22:46;;;;;;;;;;;6.70;94.00;;;;;;5001577;28;19919;-87
2022/01/06 01:25:13;;;;;;;;;;;6.70;94.10;;;;;;4977139;28;19917;-87
2022/01/06 01:27:42;;;;;;;;;;;6.70;94.20;;;;;;4995883;28;20132;-87
2022/01/06 01:30:13;;;;;;;;;;;6.70;94.30;;;;;;4986570;28;19914;-87
2022/01/06 01:32:40;;;;;;;;;;;6.70;94.40;;;;;;4989948;28;20534;-87
2022/01/06 01:35:09;;;;;;;;;;;6.80;94.50;;;;;;4986730;28;20393;-87
2022/01/06 01:37:37;;;;;;;;;;;6.80;94.50;;;;;;4982443;28;19927;-87
2022/01/06 01:40:05;;;;;;;;;;;6.90;94.50;;;;;;4994076;28;19917;-87
2022/01/06 01:42:32;;;;;;;;;;;6.90;94.50;;;;;;4994687;28;20591;-87
2022/01/06 01:45:01;;;;;;;;;;;6.90;94.50;;;;;;4988119;28;19917;-87
2022/01/06 01:47:32;;;;;;;;;;;6.90;94.50;;;;;;4973051;28;19913;-87
2022/01/06 01:50:21;;;;;;;;;;;6.90;94.50;;;;;;4983111;28;19951;-87
2022/01/06 01:52:47;;;;;;;;;;;6.90;94.40;;;;;;4998490;28;19920;-86
2022/01/06 01:55:19;;;;;;;;;;;6.90;94.40;;;;;;4992998;28;19914;-86
2022/01/06 01:57:46;;;;;;;;;;;6.80;94.30;;;;;;5006595;28;19956;-87
2022/01/06 02:00:14;;;;;;;;;;;6.80;94.20;;;;;;4980940;28;19917;-87
2022/01/06 02:02:41;;;;;;;;;;;6.80;94.20;;;;;;4985157;28;19920;-87
2022/01/06 02:05:08;;;;;;;;;;;6.80;94.20;;;;;;4981805;28;20355;-87
2022/01/06 02:07:37;;;;;;;;;;;6.70;94.20;;;;;;4993384;28;19917;-87
2022/01/06 02:10:04;;;;;;;;;;;6.70;94.20;;;;;;4977731;28;19914;-87
2022/01/06 02:12:35;;;;;;;;;;;6.70;94.20;;;;;;4994752;28;20443;-87
2022/01/06 02:15:03;;;;;;;;;;;6.70;94.20;;;;;;4987680;28;19918;-87
2022/01/06 02:17:30;;;;;;;;;;;6.70;94.30;;;;;;4978259;28;20329;-87
2022/01/06 02:19:58;;;;;;;;;;;6.70;94.30;;;;;;4983393;28;20156;-88
2022/01/06 02:22:25;;;;;;;;;;;6.70;94.40;;;;;;4959810;28;20016;-87
2022/01/06 02:24:53;;;;;;;;;;;6.70;94.40;;;;;;4987216;28;19918;-87
2022/01/06 02:27:20;;;;;;;;;;;6.70;94.40;;;;;;4973779;28;20283;-87
2022/01/06 02:29:48;;;;;;;;;;;6.70;94.50;;;;;;4982091;28;19914;-87
2022/01/06 02:32:16;;;;;;;;;;;6.70;94.50;;;;;;4997174;28;19914;-87
2022/01/06 02:34:44;;;;;;;;;;;6.70;94.50;;;;;;4971777;28;19940;-87
2022/01/06 02:37:12;;;;;;;;;;;6.80;94.60;;;;;;5002660;28;19914;-87
2022/01/06 02:39:39;;;;;;;;;;;6.80;94.60;;;;;;4989897;28;19917;-87
2022/01/06 02:42:07;;;;;;;;;;;6.80;94.70;;;;;;4982151;28;20363;-87
2022/01/06 02:44:37;;;;;;;;;;;6.80;94.60;;;;;;4992194;28;19913;-87
2022/01/06 02:47:05;;;;;;;;;;;6.80;94.60;;;;;;4985717;28;19921;-88
2022/01/06 02:49:32;;;;;;;;;;;6.80;94.60;;;;;;4984710;28;19929;-87
2022/01/06 02:51:59;;;;;;;;;;;6.80;94.70;;;;;;4991598;28;19921;-86
2022/01/06 02:54:26;;;;;;;;;;;6.80;94.70;;;;;;4984730;28;20374;-87
2022/01/06 02:56:53;;;;;;;;;;;6.80;94.70;;;;;;4998502;28;20276;-87
2022/01/06 02:59:20;;;;;;;;;;;6.90;94.70;;;;;;4990513;28;19917;-87
2022/01/06 03:01:46;;;;;;;;;;;6.90;94.70;;;;;;4979164;28;20059;-87
2022/01/06 03:04:13;;;;;;;;;;;6.90;94.70;;;;;;4986887;28;20307;-87
2022/01/06 03:06:40;;;;;;;;;;;6.90;94.70;;;;;;4983865;28;19913;-87
2022/01/06 03:09:07;;;;;;;;;;;6.90;94.70;;;;;;4984284;28;19917;-87
2022/01/06 03:11:40;;;;;;;;;;;6.90;94.70;;;;;;4980273;28;19921;-87
2022/01/06 03:14:07;;;;;;;;;;;6.90;94.60;;;;;;4984682;28;19920;-87
2022/01/06 03:16:34;;;;;;;;;;;6.90;94.90;;;;;;4982577;28;20008;-87
2022/01/06 03:19:01;;;;;;;;;;;6.90;94.60;;;;;;4994083;28;19992;-87
2022/01/06 03:21:28;;;;;;;;;;;6.90;94.60;;;;;;4988082;28;19918;-87
2022/01/06 03:23:55;;;;;;;;;;;6.90;94.60;;;;;;4987430;28;20186;-87
2022/01/06 03:26:21;;;;;;;;;;;6.90;94.60;;;;;;4993681;28;20269;-87
2022/01/06 03:28:48;;;;;;;;;;;6.90;94.60;;;;;;4991963;28;20027;-87
2022/01/06 03:31:15;;;;;;;;;;;6.90;94.60;;;;;;4987416;28;19921;-87
2022/01/06 03:33:42;;;;;;;;;;;6.80;94.50;;;;;;5002081;28;20211;-87
2022/01/06 03:36:09;;;;;;;;;;;6.80;94.50;;;;;;5010286;28;19953;-87
2022/01/06 03:38:36;;;;;;;;;;;6.80;94.40;;;;;;4976950;28;20201;-87
2022/01/06 03:41:02;;;;;;;;;;;6.80;94.40;;;;;;4996073;28;20390;-87
2022/01/06 03:43:29;;;;;;;;;;;6.80;94.40;;;;;;4980372;28;19924;-87
2022/01/06 03:45:56;;;;;;;;;;;6.70;94.30;;;;;;4991472;28;20198;-87
2022/01/06 03:48:23;;;;;;;;;;;6.70;94.30;;;;;;4968847;28;20148;-87
2022/01/06 03:50:50;;;;;;;;;;;6.70;94.30;;;;;;4990588;28;20371;-87
2022/01/06 03:53:17;;;;;;;;;;;6.60;94.20;;;;;;4962844;28;19913;-87
2022/01/06 03:55:44;;;;;;;;;;;6.60;94.20;;;;;;4986273;28;19916;-87
2022/01/06 03:58:11;;;;;;;;;;;6.60;94.20;;;;;;4989710;28;19946;-87
2022/01/06 04:00:38;;;;;;;;;;;6.60;94.20;;;;;;5006754;28;20440;-88
2022/01/06 04:03:05;;;;;;;;;;;6.60;94.30;;;;;;4995615;28;19918;-87
2022/01/06 04:05:33;;;;;;;;;;;6.60;94.30;;;;;;4996614;28;20007;-87
2022/01/06 04:08:00;;;;;;;;;;;6.60;94.30;;;;;;4994968;28;19914;-87
2022/01/06 04:10:27;;;;;;;;;;;6.50;94.30;;;;;;4986104;28;20014;-88
2022/01/06 04:12:54;;;;;;;;;;;6.60;94.30;;;;;;4996036;28;19914;-87
2022/01/06 04:15:23;;;;;;;;;;;6.60;94.30;;;;;;4987854;28;19937;-87
2022/01/06 04:17:50;;;;;;;;;;;6.60;94.40;;;;;;4985913;28;19924;-87
2022/01/06 04:20:17;;;;;;;;;;;6.60;94.40;;;;;;4976132;28;19917;-87
2022/01/06 04:22:44;;;;;;;;;;;6.60;94.40;;;;;;5015641;28;19924;-87
2022/01/06 04:25:11;;;;;;;;;;;6.60;94.40;;;;;;4988649;28;20306;-88
2022/01/06 04:27:38;;;;;;;;;;;6.60;94.50;;;;;;5009585;28;19913;-87
2022/01/06 04:30:06;;;;;;;;;;;6.60;94.50;;;;;;4982434;28;19918;-87
2022/01/06 04:32:34;;;;;;;;;;;6.60;94.50;;;;;;4999825;28;19914;-87
2022/01/06 04:35:01;;;;;;;;;;;6.60;94.50;;;;;;4998101;28;20121;-87
2022/01/06 04:37:28;;;;;;;;;;;6.60;94.50;;;;;;4983470;28;20392;-87
2022/01/06 04:39:55;;;;;;;;;;;6.60;94.50;;;;;;4983616;28;20398;-88
2022/01/06 04:42:22;;;;;;;;;;;6.60;94.50;;;;;;4994731;28;19917;-87
2022/01/06 04:44:49;;;;;;;;;;;6.60;94.50;;;;;;4991428;28;20022;-88
2022/01/06 04:47:16;;;;;;;;;;;6.60;94.50;;;;;;5000314;28;19914;-87
2022/01/06 04:49:42;;;;;;;;;;;6.60;94.50;;;;;;4991600;28;20281;-87
2022/01/06 04:52:09;;;;;;;;;;;6.60;94.80;;;;;;5016466;28;20278;-87
2022/01/06 04:54:36;;;;;;;;;;;6.60;94.40;;;;;;4990692;28;19919;-87
2022/01/06 04:57:03;;;;;;;;;;;6.60;94.40;;;;;;4992538;28;19921;-87
2022/01/06 04:59:30;;;;;;;;;;;6.50;94.40;;;;;;4979406;28;20301;-87
2022/01/06 05:01:57;;;;;;;;;;;6.50;94.40;;;;;;4982967;28;19918;-87
2022/01/06 05:04:23;;;;;;;;;;;6.50;94.30;;;;;;4990601;28;19917;-87
2022/01/06 05:06:51;;;;;;;;;;;6.50;94.30;;;;;;4994170;28;19913;-88
2022/01/06 05:09:18;;;;;;;;;;;6.40;94.30;;;;;;5011666;28;19920;-87
2022/01/06 05:11:45;;;;;;;;;;;6.40;94.20;;;;;;4966982;28;20481;-88
2022/01/06 05:14:12;;;;;;;;;;;6.40;94.20;;;;;;4987353;28;19936;-88
2022/01/06 05:16:38;;;;;;;;;;;6.30;94.20;;;;;;4992401;28;19914;-87
2022/01/06 05:19:05;;;;;;;;;;;6.30;94.10;;;;;;4978708;28;20212;-87
2022/01/06 05:21:33;;;;;;;;;;;6.20;94.10;;;;;;4998832;28;20000;-88
2022/01/06 05:24:01;;;;;;;;;;;6.20;94.00;;;;;;4992828;28;20136;-87
2022/01/06 05:26:27;;;;;;;;;;;6.10;94.00;;;;;;4976633;28;20260;-88
2022/01/06 05:28:54;;;;;;;;;;;6.10;94.00;;;;;;4980439;28;20370;-87
2022/01/06 05:31:21;;;;;;;;;;;6.00;93.90;;;;;;4972592;28;19921;-88
2022/01/06 05:33:48;;;;;;;;;;;6.00;93.90;;;;;;4994535;28;19929;-87
2022/01/06 05:36:15;;;;;;;;;;;6.00;93.90;;;;;;4996810;28;20298;-87
2022/01/06 05:38:42;;;;;;;;;;;5.90;93.90;;;;;;4990093;28;19914;-87
2022/01/06 05:41:08;;;;;;;;;;;5.90;93.90;;;;;;4994990;28;19947;-87
2022/01/06 05:43:35;;;;;;;;;;;5.80;93.90;;;;;;4978418;28;20363;-87
2022/01/06 05:46:02;;;;;;;;;;;5.80;93.90;;;;;;5011373;28;20371;-87
2022/01/06 05:48:31;;;;;;;;;;;5.80;93.80;;;;;;4977965;28;22332;-87
2022/01/06 05:50:58;;;;;;;;;;;5.70;93.80;;;;;;4987368;28;20231;-87
2022/01/06 05:53:25;;;;;;;;;;;5.70;93.80;;;;;;4993684;28;19913;-87
2022/01/06 05:55:52;;;;;;;;;;;5.60;93.70;;;;;;4994420;28;20079;-87
2022/01/06 05:58:18;;;;;;;;;;;5.60;93.70;;;;;;4984252;28;19920;-87
2022/01/06 06:00:45;;;;;;;;;;;5.50;93.70;;;;;;4975584;28;19968;-87
2022/01/06 06:03:12;;;;;;;;;;;5.50;93.70;;;;;;4997444;28;19921;-87
2022/01/06 06:05:41;;;;;;;;;;;5.40;93.70;;;;;;4995197;28;19913;-87
2022/01/06 06:08:08;;;;;;;;;;;5.40;93.70;;;;;;4978224;28;19920;-87
2022/01/06 06:10:36;;;;;;;;;;;5.40;93.70;;;;;;4986175;28;20326;-87
2022/01/06 06:13:03;;;;;;;;;;;5.30;93.70;;;;;;4989230;28;19914;-87
2022/01/06 06:15:34;;;;;;;;;;;5.30;93.70;;;;;;4969193;28;20018;-87
2022/01/06 06:18:02;;;;;;;;;;;5.30;93.70;;;;;;4984301;28;19917;-87
2022/01/06 06:20:29;;;;;;;;;;;5.30;93.70;;;;;;4998166;28;20092;-87
2022/01/06 06:22:56;;;;;;;;;;;5.20;93.70;;;;;;4995865;28;19952;-87
2022/01/06 06:25:23;;;;;;;;;;;5.20;93.70;;;;;;4979578;28;19914;-87
2022/01/06 06:27:49;;;;;;;;;;;5.20;93.80;;;;;;4993635;28;19939;-87
2022/01/06 06:30:17;;;;;;;;;;;5.20;93.80;;;;;;4993608;28;20386;-87
2022/01/06 06:32:44;;;;;;;;;;;5.20;93.80;;;;;;4989220;28;19914;-87
2022/01/06 06:35:11;;;;;;;;;;;5.20;93.80;;;;;;4971197;28;20049;-87
2022/01/06 06:37:38;;;;;;;;;;;5.10;93.80;;;;;;4993656;28;19944;-87
2022/01/06 06:40:06;;;;;;;;;;;5.10;93.80;;;;;;4972022;28;19928;-87
2022/01/06 06:42:32;;;;;;;;;;;5.10;93.80;;;;;;4988793;28;19937;-87
2022/01/06 06:45:00;;;;;;;;;;;5.10;93.80;;;;;;4986983;28;19921;-87
2022/01/06 06:47:26;;;;;;;;;;;5.10;93.90;;;;;;4985340;28;22128;-87
2022/01/06 06:49:56;;;;;;;;;;;5.10;93.90;;;;;;4984815;28;20370;-87
2022/01/06 06:52:23;;;;;;;;;;;5.00;93.90;;;;;;4992926;28;19914;-87
2022/01/06 06:54:50;;;;;;;;;;;5.00;93.90;;;;;;4990188;28;19913;-87
2022/01/06 06:57:16;;;;;;;;;;;5.00;93.90;;;;;;4966199;28;20091;-87
2022/01/06 06:59:43;;;;;;;;;;;5.00;93.80;;;;;;4972085;28;19921;-87
2022/01/06 07:02:10;;;;;;;;;;;5.00;93.80;;;;;;4972884;28;20314;-87
2022/01/06 07:04:37;;;;;;;;;;;5.00;93.90;;;;;;4980623;28;19928;-87
2022/01/06 07:07:04;;;;;;;;;;;4.90;93.80;;;;;;4976855;28;19921;-87
2022/01/06 07:09:30;;;;;;;;;;;4.90;93.80;;;;;;4984507;28;20337;-87
2022/01/06 07:11:57;;;;;;;;;;;4.90;93.80;;;;;;4965954;28;19922;-87
2022/01/06 07:14:24;;;;;;;;;;;4.90;93.80;;;;;;4984183;28;20051;-87
2022/01/06 07:16:51;;;;;;;;;;;4.80;93.80;;;;;;4963769;28;19944;-87
2022/01/06 07:19:18;;;;;;;;;;;4.80;93.80;;;;;;4993951;28;19924;-87
2022/01/06 07:21:45;;;;;;;;;;;4.80;93.80;;;;;;4974288;28;19920;-87
2022/01/06 07:24:11;;;;;;;;;;;4.80;93.80;;;;;;4991490;28;19917;-87
2022/01/06 07:26:38;;;;;;;;;;;4.80;93.80;;;;;;4982949;28;20293;-87
2022/01/06 07:29:05;;;;;;;;;;;4.80;93.80;;;;;;4984169;28;19950;-87
2022/01/06 07:31:32;;;;;;;;;;;4.70;93.80;;;;;;5009447;28;19914;-87
2022/01/06 07:33:59;;;;;;;;;;;4.70;93.80;;;;;;4986074;28;19914;-87
2022/01/06 07:36:25;;;;;;;;;;;4.70;93.80;;;;;;4983489;28;20020;-87
2022/01/06 07:38:52;;;;;;;;;;;4.70;93.80;;;;;;4998336;28;19988;-87
2022/01/06 07:41:19;;;;;;;;;;;4.70;93.80;;;;;;4992668;28;19919;-87
2022/01/06 07:43:46;;;;;;;;;;;4.70;93.90;;;;;;4981512;28;19925;-87
2022/01/06 07:46:13;;;;;;;;;;;4.70;93.90;;;;;;4976590;28;20109;-87
2022/01/06 07:48:56;;;;;;;;;;;4.70;94.00;;;;;;4992358;28;19913;-87
2022/01/06 07:51:24;;;;;;;;;;;4.70;94.00;;;;;;5008587;28;20313;-87
2022/01/06 07:53:52;;;;;;;;;;;4.70;94.10;;;;;;4985252;28;19920;-87
2022/01/06 07:56:19;;;;;;;;;;;4.80;94.20;;;;;;4988923;28;20009;-87
2022/01/06 07:58:45;;;;;;;;;;;4.80;94.30;;;;;;4982153;28;19934;-87
2022/01/06 08:01:13;;;;;;;;;;;4.80;94.40;;;;;;4966756;28;20313;-87
2022/01/06 08:03:40;;;;;;;;;;;4.90;94.50;;;;;;4991115;28;19924;-87
2022/01/06 08:06:07;;;;;;;;;;;5.00;94.50;;;;;;4997398;28;20474;-87
2022/01/06 08:08:34;;;;;;;;;;;5.00;94.60;;;;;;4986320;28;20409;-87
2022/01/06 08:11:02;;;;;;;;;;;5.00;94.60;;;;;;4991966;28;19914;-87
2022/01/06 08:13:29;;;;;;;;;;;5.10;94.70;;;;;;5009133;28;19913;-87
2022/01/06 08:15:55;;;;;;;;;;;5.20;94.70;;;;;;4984601;28;19914;-87
2022/01/06 08:18:22;;;;;;;;;;;5.20;94.70;;;;;;4980676;28;20205;-87
2022/01/06 08:20:49;;;;;;;;;;;5.20;94.70;;;;;;4996745;28;20359;-87
2022/01/06 08:23:16;;;;;;;;;;;5.30;94.80;;;;;;4982421;28;19921;-87
2022/01/06 08:25:43;;;;;;;;;;;5.30;94.70;;;;;;4976128;28;20322;-87
2022/01/06 08:28:10;;;;;;;;;;;5.30;94.70;;;;;;4993176;28;20201;-87
2022/01/06 08:30:37;;;;;;;;;;;5.30;94.70;;;;;;4964406;28;20570;-87
2022/01/06 08:33:04;;;;;;;;;;;5.30;94.80;;;;;;4994523;28;19921;-87
2022/01/06 08:35:31;;;;;;;;;;;5.40;94.80;;;;;;4979879;28;20314;-87
2022/01/06 08:37:58;;;;;;;;;;;5.30;94.70;;;;;;4979244;28;20198;-87
2022/01/06 08:40:25;;;;;;;;;;;5.30;94.70;;;;;;4982346;28;19913;-87
2022/01/06 08:42:52;;;;;;;;;;;5.30;94.70;;;;;;4999647;28;20396;-87
2022/01/06 08:45:20;;;;;;;;;;;5.30;94.60;;;;;;4966220;28;19914;-87
2022/01/06 08:47:47;;;;;;;;;;;5.30;94.60;;;;;;4992805;28;20103;-87
2022/01/06 08:50:15;;;;;;;;;;;5.20;94.50;;;;;;4982840;28;20286;-87
2022/01/06 08:52:42;;;;;;;;;;;5.20;94.50;;;;;;4989777;28;19943;-87
2022/01/06 08:55:09;;;;;;;;;;;5.20;94.50;;;;;;4984245;28;20362;-87
2022/01/06 08:57:36;;;;;;;;;;;5.20;94.50;;;;;;4978018;28;19918;-87
2022/01/06 09:00:06;;;;;;;;;;;5.20;94.50;;;;;;4988107;28;19921;-87
2022/01/06 09:02:33;;;;;;;;;;;5.20;94.50;;;;;;4993609;28;19918;-87
2022/01/06 09:05:02;;;;;;;;;;;5.20;94.60;;;;;;4989644;28;19922;-87
2022/01/06 09:07:29;;;;;;;;;;;5.20;94.60;;;;;;4996371;28;20519;-87
2022/01/06 09:09:56;;;;;;;;;;;5.20;95.00;;;;;;4983866;28;20287;-87
2022/01/06 09:12:23;;;;;;;;;;;5.20;94.70;;;;;;4971330;28;19923;-87
2022/01/06 09:14:50;;;;;;;;;;;5.30;94.80;;;;;;4989924;28;19921;-87
2022/01/06 09:17:17;;;;;;;;;;;5.40;95.00;;;;;;4986021;28;19936;-87
2022/01/06 09:19:43;;;;;;;;;;;5.50;95.20;;;;;;4985377;28;19914;-87
2022/01/06 09:22:10;;;;;;;;;;;5.60;95.40;;;;;;4978813;28;19914;-87
2022/01/06 09:24:37;;;;;;;;;;;5.70;95.50;;;;;;4998868;28;20289;-87
2022/01/06 09:27:04;;;;;;;;;;;5.90;95.70;;;;;;4977301;28;19939;-87
2022/01/06 09:29:31;;;;;;;;;;;6.00;95.80;;;;;;4994143;28;20401;-87
2022/01/06 09:31:58;;;;;;;;;;;6.20;96.00;;;;;;4974908;28;19943;-87
2022/01/06 09:34:25;;;;;;;;;;;6.50;96.30;;;;;;4990788;28;20274;-87
2022/01/06 09:36:51;;;;;;;;;;;6.80;96.60;;;;;;4983128;28;19924;-87
2022/01/06 09:39:19;;;;;;;;;;;7.20;97.00;;;;;;4985647;28;20229;-87
2022/01/06 09:41:47;;;;;;;;;;;7.50;97.20;;;;;;4983969;28;19913;-87
2022/01/06 09:44:15;;;;;;;;;;;7.90;97.50;;;;;;4986506;28;20004;-87
2022/01/06 09:46:42;;;;;;;;;;;8.30;97.60;;;;;;4997017;28;19924;-87
2022/01/06 09:49:09;;;;;;;;;;;8.80;97.70;;;;;;4988437;28;20535;-87
2022/01/06 09:51:36;;;;;;;;;;;9.20;97.90;;;;;;4989249;28;19914;-87
2022/01/06 09:54:03;;;;;;;;;;;9.60;97.80;;;;;;4980626;28;19921;-88
2022/01/06 09:56:30;;;;;;;;;;;10.00;97.80;;;;;;4996680;28;20297;-87
2022/01/06 09:58:57;;;;;;;;;;;10.30;97.50;;;;;;4980101;28;19917;-87
2022/01/06 10:01:24;;;;;;;;;;;10.70;97.40;;;;;;4983734;28;19910;-87
2022/01/06 10:03:51;;;;;;;;;;;11.10;97.20;;;;;;4982452;28;20232;-88
2022/01/06 10:06:21;;;;;;;;;;;11.40;97.00;;;;;;4988296;28;19944;-87
2022/01/06 10:08:50;;;;;;;;;;;11.80;96.90;;;;;;4986769;28;19917;-87
2022/01/06 10:11:21;;;;;;;;;;;12.10;96.60;;;;;;4994828;28;20038;-87
2022/01/06 10:14:03;;;;;;;;;;;12.40;96.40;;;;;;4972624;28;19927;-87
2022/01/06 10:16:30;;;;;;;;;;;12.80;95.80;;;;;;4996877;28;19917;-87
2022/01/06 10:18:57;;;;;;;;;;;13.10;95.80;;;;;;4998377;28;20397;-88
2022/01/06 10:21:24;;;;;;;;;;;13.40;95.70;;;;;;4986168;28;19928;-87
2022/01/06 10:24:01;;;;;;;;;;;13.60;95.90;;;;;;4982551;28;20387;-87
2022/01/06 10:26:28;;;;;;;;;;;13.90;95.20;;;;;;4988178;28;19914;-88
2022/01/06 10:28:55;;;;;;;;;;;14.10;94.90;;;;;;4982058;28;19913;-87
2022/01/06 10:31:29;;;;;;;;;;;14.30;94.40;;;;;;4980648;28;19921;-88
2022/01/06 10:33:55;;;;;;;;;;;14.50;94.30;;;;;;4991282;28;19922;-87
2022/01/06 10:36:30;;;;;;;;;;;14.80;94.50;;;;;;4995414;28;19928;-88
2022/01/06 10:39:00;;;;;;;;;;;15.00;94.00;;;;;;4989444;28;19920;-88
2022/01/06 10:41:28;;;;;;;;;;;15.30;93.80;;;;;;4989875;28;19917;-88
2022/01/06 10:43:56;;;;;;;;;;;15.50;93.70;;;;;;4977224;28;19980;-88
2022/01/06 10:46:30;;;;;;;;;;;15.60;93.30;;;;;;4991211;28;19918;-88
2022/01/06 10:48:58;;;;;;;;;;;15.80;93.50;;;;;;4977416;28;20019;-87
2022/01/06 10:51:36;;;;;;;;;;;15.90;93.20;;;;;;4991489;28;19919;-87
2022/01/06 10:54:03;;;;;;;;;;;15.90;91.60;;;;;;4989322;28;19939;-88
2022/01/06 10:56:30;;;;;;;;;;;15.70;91.00;;;;;;4984535;28;19925;-87
2022/01/06 10:58:58;;;;;;;;;;;15.50;89.20;;;;;;4968446;28;20277;-87
2022/01/06 11:01:25;;;;;;;;;;;15.10;88.10;;;;;;4987934;28;19917;-88
2022/01/06 11:03:52;;;;;;;;;;;14.80;88.30;;;;;;4986894;28;19922;-88
2022/01/06 11:06:18;;;;;;;;;;;14.40;89.50;;;;;;4991756;28;20363;-88
2022/01/06 11:08:45;;;;;;;;;;;14.10;89.30;;;;;;4982630;28;20379;-88
2022/01/06 11:13:44;;;;;;;;;;;13.50;87.80;;;;;;4991815;28;19920;-87
2022/01/06 11:16:12;;;;;;;;;;;13.30;88.60;;;;;;4983481;28;19920;-88
2022/01/06 11:18:47;;;;;;;;;;;13.10;90.00;;;;;;4975789;28;19913;-88
2022/01/06 11:21:16;;;;;;;;;;;13.00;90.50;;;;;;4999031;28;19917;-87
2022/01/06 11:23:43;;;;;;;;;;;12.80;90.20;;;;;;4980202;28;20022;-87
2022/01/06 11:26:16;;;;;;;;;;;12.80;90.40;;;;;;4988483;28;19914;-87
2022/01/06 11:28:55;;;;;;;;;;;12.70;90.40;;;;;;4990122;28;20182;-87
2022/01/06 11:31:23;;;;;;;;;;;12.60;90.60;;;;;;4971126;28;20367;-87
2022/01/06 11:33:51;;;;;;;;;;;12.50;90.90;;;;;;4983603;28;19934;-87
2022/01/06 11:36:31;;;;;;;;;;;12.40;90.90;;;;;;4984028;28;20402;-87
2022/01/06 11:38:59;;;;;;;;;;;12.40;90.90;;;;;;4983608;28;19921;-88
2022/01/06 11:41:32;;;;;;;;;;;12.40;91.40;;;;;;4989563;28;19924;-88
2022/01/06 11:44:02;;;;;;;;;;;12.40;91.70;;;;;;4992171;28;20302;-87
2022/01/06 11:46:41;;;;;;;;;;;12.40;92.00;;;;;;4980164;28;19914;-87
2022/01/06 11:49:08;;;;;;;;;;;12.50;92.30;;;;;;4980682;28;20267;-87
2022/01/06 11:51:37;;;;;;;;;;;12.60;92.50;;;;;;4993101;28;19922;-88
2022/01/06 11:54:12;;;;;;;;;;;12.70;92.40;;;;;;4984820;28;20004;-87
2022/01/06 11:56:43;;;;;;;;;;;12.70;92.50;;;;;;4994487;28;19919;-87
2022/01/06 11:59:10;;;;;;;;;;;12.90;93.10;;;;;;4992994;28;20374;-87
2022/01/06 12:01:44;;;;;;;;;;;12.90;92.40;;;;;;4980605;28;19914;-87
2022/01/06 12:04:18;;;;;;;;;;;13.00;92.90;;;;;;4982881;28;20183;-87
2022/01/06 12:06:46;;;;;;;;;;;13.20;93.20;;;;;;4981392;28;19914;-88
2022/01/06 12:09:20;;;;;;;;;;;13.40;93.40;;;;;;4976755;28;20279;-87
2022/01/06 12:11:58;;;;;;;;;;;13.60;93.10;;;;;;4984274;28;19914;-87
2022/01/06 12:14:25;;;;;;;;;;;13.80;93.60;;;;;;4982057;28;19940;-87
2022/01/06 12:17:00;;;;;;;;;;;14.00;93.80;;;;;;4991248;28;19917;-87
2022/01/06 12:19:27;;;;;;;;;;;14.20;92.80;;;;;;4986861;28;19921;-87
2022/01/06 12:21:54;;;;;;;;;;;14.30;93.00;;;;;;4989919;28;19921;-87
2022/01/06 12:24:20;;;;;;;;;;;14.30;92.40;;;;;;4984445;28;20174;-87
2022/01/06 12:26:48;;;;;;;;;;;14.30;91.90;;;;;;4985243;28;20378;-87
2022/01/06 12:29:17;;;;;;;;;;;14.40;91.30;;;;;;4997288;28;19920;-87
2022/01/06 12:31:45;;;;;;;;;;;14.40;91.40;;;;;;4982873;28;20498;-87
2022/01/06 12:34:14;;;;;;;;;;;14.40;90.70;;;;;;4969393;28;19913;-87
2022/01/06 12:36:43;;;;;;;;;;;14.40;91.30;;;;;;5005044;28;19927;-87
2022/01/06 12:39:14;;;;;;;;;;;14.40;89.60;;;;;;4979501;28;20532;-86
2022/01/06 12:41:41;;;;;;;;;;;14.30;81.20;;;;;;5001949;28;19924;-87
2022/01/06 12:44:08;;;;;;;;;;;14.20;88.50;;;;;;4994860;28;19917;-87
2022/01/06 12:46:37;;;;;;;;;;;14.20;89.10;;;;;;4993557;28;19925;-87
2022/01/06 12:49:08;;;;;;;;;;;14.20;90.30;;;;;;4982936;28;20559;-88
2022/01/06 12:51:36;;;;;;;;;;;14.20;91.50;;;;;;4997575;28;19921;-87
2022/01/06 12:54:09;;;;;;;;;;;14.30;91.30;;;;;;4984685;28;20259;-87
2022/01/06 12:56:37;;;;;;;;;;;14.30;86.10;;;;;;4982126;28;20371;-87
2022/01/06 12:59:09;;;;;;;;;;;14.40;89.60;;;;;;4993366;28;19913;-87
2022/01/06 13:01:36;;;;;;;;;;;14.30;89.50;;;;;;4995635;28;20359;-87
2022/01/06 13:04:04;;;;;;;;;;;14.30;88.40;;;;;;4985862;28;20007;-87
2022/01/06 13:06:33;;;;;;;;;;;14.30;90.40;;;;;;4994809;28;19921;-87
2022/01/06 13:09:00;;;;;;;;;;;14.30;84.80;;;;;;4987443;28;20291;-86
2022/01/06 13:11:28;;;;;;;;;;;14.30;81.80;;;;;;4973135;28;19922;-86
2022/01/06 13:13:59;;;;;;;;;;;14.20;84.10;;;;;;4989250;28;19992;-87
2022/01/06 13:16:29;;;;;;;;;;;14.30;85.60;;;;;;4976690;28;19914;-87
2022/01/06 13:18:57;;;;;;;;;;;14.30;84.60;;;;;;4988184;28;20017;-87
2022/01/06 13:21:27;;;;;;;;;;;14.30;87.60;;;;;;4989581;28;19921;-87
2022/01/06 13:23:56;;;;;;;;;;;14.40;87.40;;;;;;5006580;28;19914;-87
2022/01/06 13:26:23;;;;;;;;;;;14.40;86.80;;;;;;4976679;28;20137;-87
2022/01/06 13:28:59;;;;;;;;;;;14.50;86.80;;;;;;4991292;28;20119;-87
2022/01/06 13:31:26;;;;;;;;;;;14.40;87.20;;;;;;4992947;28;19925;-87
2022/01/06 13:33:54;;;;;;;;;;;14.30;87.90;;;;;;4977486;28;19996;-87
2022/01/06 13:36:29;;;;;;;;;;;14.30;85.30;;;;;;4996884;28;20414;-86
2022/01/06 13:39:06;;;;;;;;;;;14.30;85.10;;;;;;4982373;28;19913;-87
2022/01/06 13:41:34;;;;;;;;;;;14.40;88.00;;;;;;4984812;28;19919;-87
2022/01/06 13:44:05;;;;;;;;;;;14.40;88.40;;;;;;4982105;28;20023;-86
2022/01/06 13:46:50;;;;;;;;;;;14.40;85.10;;;;;;4988722;28;19928;-87
2022/01/06 13:52:24;;;;;;;;;;;14.50;84.10;;;;;;4967893;28;19917;-86
2022/01/06 13:54:51;;;;;;;;;;;14.50;85.40;;;;;;4986322;28;20120;-87
2022/01/06 13:57:18;;;;;;;;;;;14.40;85.90;;;;;;4986961;28;20380;-87
2022/01/06 13:59:45;;;;;;;;;;;14.40;84.30;;;;;;4998003;28;19913;-87
2022/01/06 14:02:13;;;;;;;;;;;14.30;84.30;;;;;;5001356;28;19921;-87
2022/01/06 14:04:41;;;;;;;;;;;14.30;81.10;;;;;;4988391;28;19914;-87
2022/01/06 14:07:07;;;;;;;;;;;14.20;85.40;;;;;;4984968;28;19959;-87
2022/01/06 14:09:34;;;;;;;;;;;14.20;87.00;;;;;;4998766;28;20263;-87
2022/01/06 14:12:01;;;;;;;;;;;14.20;86.60;;;;;;4985437;28;19921;-86
2022/01/06 14:14:28;;;;;;;;;;;14.10;88.40;;;;;;4985223;28;19917;-87
2022/01/06 14:16:55;;;;;;;;;;;14.10;85.20;;;;;;4991324;28;20054;-86
2022/01/06 14:19:22;;;;;;;;;;;14.00;87.40;;;;;;4985028;28;19913;-87
2022/01/06 14:21:49;;;;;;;;;;;13.90;85.70;;;;;;4985369;28;20435;-87
2022/01/06 14:24:16;;;;;;;;;;;13.70;85.50;;;;;;4988547;28;20202;-87
2022/01/06 14:26:43;;;;;;;;;;;13.50;83.00;;;;;;4978236;28;20417;-87
2022/01/06 14:29:10;;;;;;;;;;;13.20;78.70;;;;;;4963102;28;19913;-87
2022/01/06 14:31:37;;;;;;;;;;;12.90;80.50;;;;;;4979861;28;19920;-87
2022/01/06 14:34:03;;;;;;;;;;;12.60;82.00;;;;;;4976390;28;20007;-87
2022/01/06 14:36:30;;;;;;;;;;;12.30;83.50;;;;;;4981774;28;19921;-87
2022/01/06 14:38:57;;;;;;;;;;;12.10;81.50;;;;;;4981974;28;20191;-87
2022/01/06 14:41:24;;;;;;;;;;;11.80;84.30;;;;;;4997083;28;19944;-86